sensor_id;sensor_type;location;lat;lon;timestamp;P1;durP1;ratioP1;P2;durP2;ratioP2
59555;SDS011;45374;52.746;6.304;2023-04-25T00:00:41;21.65;;;4.82;;
59555;SDS011;45374;52.746;6.304;2023-04-25T00:03:06;23.52;;;5.25;;
59555;SDS011;45374;52.746;6.304;2023-04-25T00:05:33;21.52;;;4.90;;
59555;SDS011;45374;52.746;6.304;2023-04-25T00:08:02;23.65;;;5.43;;
59555;SDS011;45374;52.746;6.304;2023-04-25T00:10:28;26.98;;;5.78;;
59555;SDS011;45374;52.746;6.304;2023-04-25T00:12:53;23.40;;;5.00;;
59555;SDS011;45374;52.746;6.304;2023-04-25T00:15:19;18.05;;;4.70;;
59555;SDS011;45374;52.746;6.304;2023-04-25T00:17:44;18.05;;;4.80;;
59555;SDS011;45374;52.746;6.304;2023-04-25T00:20:10;24.23;;;5.90;;
59555;SDS011;45374;52.746;6.304;2023-04-25T00:22:36;24.60;;;5.30;;
59555;SDS011;45374;52.746;6.304;2023-04-25T00:25:05;21.17;;;5.43;;
59555;SDS011;45374;52.746;6.304;2023-04-25T00:27:31;17.60;;;4.93;;
59555;SDS011;45374;52.746;6.304;2023-04-25T00:29:57;20.70;;;4.63;;
59555;SDS011;45374;52.746;6.304;2023-04-25T00:32:23;16.02;;;4.53;;
59555;SDS011;45374;52.746;6.304;2023-04-25T00:37:27;26.02;;;5.05;;
59555;SDS011;45374;52.746;6.304;2023-04-25T00:39:53;19.08;;;4.93;;
59555;SDS011;45374;52.746;6.304;2023-04-25T00:42:20;18.40;;;4.90;;
59555;SDS011;45374;52.746;6.304;2023-04-25T00:44:46;19.70;;;5.18;;
59555;SDS011;45374;52.746;6.304;2023-04-25T00:47:12;15.30;;;4.57;;
59555;SDS011;45374;52.746;6.304;2023-04-25T00:49:38;19.75;;;4.60;;
59555;SDS011;45374;52.746;6.304;2023-04-25T00:52:04;19.75;;;4.75;;
59555;SDS011;45374;52.746;6.304;2023-04-25T00:54:35;25.38;;;5.45;;
59555;SDS011;45374;52.746;6.304;2023-04-25T00:57:00;26.67;;;4.95;;
59555;SDS011;45374;52.746;6.304;2023-04-25T00:59:27;17.40;;;4.15;;
59555;SDS011;45374;52.746;6.304;2023-04-25T01:01:54;20.73;;;4.47;;
59555;SDS011;45374;52.746;6.304;2023-04-25T01:04:23;17.77;;;4.63;;
59555;SDS011;45374;52.746;6.304;2023-04-25T01:06:49;21.23;;;4.90;;
59555;SDS011;45374;52.746;6.304;2023-04-25T01:09:15;25.00;;;5.05;;
59555;SDS011;45374;52.746;6.304;2023-04-25T01:11:41;19.75;;;4.30;;
59555;SDS011;45374;52.746;6.304;2023-04-25T01:14:14;21.27;;;5.07;;
59555;SDS011;45374;52.746;6.304;2023-04-25T01:16:40;21.38;;;4.43;;
59555;SDS011;45374;52.746;6.304;2023-04-25T01:19:09;20.42;;;4.95;;
59555;SDS011;45374;52.746;6.304;2023-04-25T01:21:38;22.73;;;4.43;;
59555;SDS011;45374;52.746;6.304;2023-04-25T01:24:03;18.75;;;4.85;;
59555;SDS011;45374;52.746;6.304;2023-04-25T01:26:30;15.93;;;4.25;;
59555;SDS011;45374;52.746;6.304;2023-04-25T01:28:56;20.10;;;4.90;;
59555;SDS011;45374;52.746;6.304;2023-04-25T01:31:22;23.33;;;5.45;;
59555;SDS011;45374;52.746;6.304;2023-04-25T01:33:48;15.38;;;4.50;;
59555;SDS011;45374;52.746;6.304;2023-04-25T01:36:14;17.23;;;4.75;;
59555;SDS011;45374;52.746;6.304;2023-04-25T01:38:40;18.42;;;4.80;;
59555;SDS011;45374;52.746;6.304;2023-04-25T01:41:06;21.05;;;5.07;;
59555;SDS011;45374;52.746;6.304;2023-04-25T01:43:32;17.85;;;4.88;;
59555;SDS011;45374;52.746;6.304;2023-04-25T01:45:58;20.25;;;5.22;;
59555;SDS011;45374;52.746;6.304;2023-04-25T01:48:24;11.82;;;4.22;;
59555;SDS011;45374;52.746;6.304;2023-04-25T01:50:50;18.58;;;4.57;;
59555;SDS011;45374;52.746;6.304;2023-04-25T01:53:15;23.17;;;5.03;;
59555;SDS011;45374;52.746;6.304;2023-04-25T01:55:41;16.73;;;4.57;;
59555;SDS011;45374;52.746;6.304;2023-04-25T01:58:06;20.67;;;5.03;;
59555;SDS011;45374;52.746;6.304;2023-04-25T02:00:34;18.02;;;4.82;;
59555;SDS011;45374;52.746;6.304;2023-04-25T02:03:03;13.10;;;4.35;;
59555;SDS011;45374;52.746;6.304;2023-04-25T02:05:28;15.55;;;4.22;;
59555;SDS011;45374;52.746;6.304;2023-04-25T02:07:58;16.73;;;4.28;;
59555;SDS011;45374;52.746;6.304;2023-04-25T02:10:24;23.27;;;4.88;;
59555;SDS011;45374;52.746;6.304;2023-04-25T02:12:49;14.40;;;4.65;;
59555;SDS011;45374;52.746;6.304;2023-04-25T02:15:15;24.80;;;4.93;;
59555;SDS011;45374;52.746;6.304;2023-04-25T02:17:40;11.50;;;4.63;;
59555;SDS011;45374;52.746;6.304;2023-04-25T02:20:06;14.93;;;4.40;;
59555;SDS011;45374;52.746;6.304;2023-04-25T02:22:32;19.02;;;4.82;;
59555;SDS011;45374;52.746;6.304;2023-04-25T02:24:59;17.33;;;4.40;;
59555;SDS011;45374;52.746;6.304;2023-04-25T02:27:24;18.98;;;5.00;;
59555;SDS011;45374;52.746;6.304;2023-04-25T02:29:50;15.88;;;4.45;;
59555;SDS011;45374;52.746;6.304;2023-04-25T02:32:15;20.98;;;5.40;;
59555;SDS011;45374;52.746;6.304;2023-04-25T02:34:41;20.70;;;5.05;;
59555;SDS011;45374;52.746;6.304;2023-04-25T02:37:06;16.52;;;4.50;;
59555;SDS011;45374;52.746;6.304;2023-04-25T02:39:32;14.23;;;3.75;;
59555;SDS011;45374;52.746;6.304;2023-04-25T02:41:57;19.00;;;3.42;;
59555;SDS011;45374;52.746;6.304;2023-04-25T02:44:23;11.85;;;2.72;;
59555;SDS011;45374;52.746;6.304;2023-04-25T02:46:48;16.85;;;3.50;;
59555;SDS011;45374;52.746;6.304;2023-04-25T02:49:14;17.00;;;3.08;;
59555;SDS011;45374;52.746;6.304;2023-04-25T02:51:39;19.15;;;3.65;;
59555;SDS011;45374;52.746;6.304;2023-04-25T02:54:05;13.60;;;3.33;;
59555;SDS011;45374;52.746;6.304;2023-04-25T02:56:31;18.45;;;3.28;;
59555;SDS011;45374;52.746;6.304;2023-04-25T02:58:57;17.25;;;3.25;;
59555;SDS011;45374;52.746;6.304;2023-04-25T03:01:22;16.25;;;3.53;;
59555;SDS011;45374;52.746;6.304;2023-04-25T03:03:48;14.43;;;3.70;;
59555;SDS011;45374;52.746;6.304;2023-04-25T03:06:13;19.60;;;3.42;;
59555;SDS011;45374;52.746;6.304;2023-04-25T03:08:40;17.77;;;3.72;;
59555;SDS011;45374;52.746;6.304;2023-04-25T03:11:05;16.23;;;3.47;;
59555;SDS011;45374;52.746;6.304;2023-04-25T03:13:31;12.38;;;3.45;;
59555;SDS011;45374;52.746;6.304;2023-04-25T03:15:59;18.30;;;3.75;;
59555;SDS011;45374;52.746;6.304;2023-04-25T03:18:25;14.95;;;3.15;;
59555;SDS011;45374;52.746;6.304;2023-04-25T03:20:50;13.82;;;3.17;;
59555;SDS011;45374;52.746;6.304;2023-04-25T03:23:16;13.13;;;3.33;;
59555;SDS011;45374;52.746;6.304;2023-04-25T03:25:41;13.65;;;2.78;;
59555;SDS011;45374;52.746;6.304;2023-04-25T03:30:36;14.85;;;3.33;;
59555;SDS011;45374;52.746;6.304;2023-04-25T03:33:01;14.27;;;2.60;;
59555;SDS011;45374;52.746;6.304;2023-04-25T03:35:27;11.05;;;2.63;;
59555;SDS011;45374;52.746;6.304;2023-04-25T03:37:53;12.15;;;2.25;;
59555;SDS011;45374;52.746;6.304;2023-04-25T03:40:18;13.50;;;3.22;;
59555;SDS011;45374;52.746;6.304;2023-04-25T03:42:44;12.52;;;2.10;;
59555;SDS011;45374;52.746;6.304;2023-04-25T03:45:10;13.77;;;2.60;;
59555;SDS011;45374;52.746;6.304;2023-04-25T03:47:36;13.10;;;2.58;;
59555;SDS011;45374;52.746;6.304;2023-04-25T03:50:01;12.82;;;2.33;;
59555;SDS011;45374;52.746;6.304;2023-04-25T03:52:27;7.55;;;1.75;;
59555;SDS011;45374;52.746;6.304;2023-04-25T03:54:53;12.10;;;2.45;;
59555;SDS011;45374;52.746;6.304;2023-04-25T03:57:18;12.88;;;2.78;;
59555;SDS011;45374;52.746;6.304;2023-04-25T03:59:44;9.93;;;1.38;;
59555;SDS011;45374;52.746;6.304;2023-04-25T04:02:10;11.15;;;2.25;;
59555;SDS011;45374;52.746;6.304;2023-04-25T04:04:35;7.60;;;1.92;;
59555;SDS011;45374;52.746;6.304;2023-04-25T04:07:01;9.05;;;1.95;;
59555;SDS011;45374;52.746;6.304;2023-04-25T04:09:27;13.90;;;2.13;;
59555;SDS011;45374;52.746;6.304;2023-04-25T04:11:52;9.43;;;2.25;;
59555;SDS011;45374;52.746;6.304;2023-04-25T04:14:18;7.93;;;2.35;;
59555;SDS011;45374;52.746;6.304;2023-04-25T04:16:44;8.73;;;1.90;;
59555;SDS011;45374;52.746;6.304;2023-04-25T04:19:10;9.13;;;2.10;;
59555;SDS011;45374;52.746;6.304;2023-04-25T04:21:35;14.32;;;2.67;;
59555;SDS011;45374;52.746;6.304;2023-04-25T04:24:01;9.18;;;1.75;;
59555;SDS011;45374;52.746;6.304;2023-04-25T04:26:27;9.85;;;2.13;;
59555;SDS011;45374;52.746;6.304;2023-04-25T04:28:52;7.20;;;2.25;;
59555;SDS011;45374;52.746;6.304;2023-04-25T04:31:22;5.97;;;1.98;;
59555;SDS011;45374;52.746;6.304;2023-04-25T04:33:48;9.43;;;2.53;;
59555;SDS011;45374;52.746;6.304;2023-04-25T04:36:14;5.88;;;2.25;;
59555;SDS011;45374;52.746;6.304;2023-04-25T04:38:40;9.38;;;2.25;;
59555;SDS011;45374;52.746;6.304;2023-04-25T04:41:07;6.38;;;1.65;;
59555;SDS011;45374;52.746;6.304;2023-04-25T04:43:33;10.95;;;2.10;;
59555;SDS011;45374;52.746;6.304;2023-04-25T04:46:00;7.85;;;2.05;;
59555;SDS011;45374;52.746;6.304;2023-04-25T04:48:25;5.53;;;1.60;;
59555;SDS011;45374;52.746;6.304;2023-04-25T04:50:51;10.18;;;2.17;;
59555;SDS011;45374;52.746;6.304;2023-04-25T04:53:17;9.70;;;1.90;;
59555;SDS011;45374;52.746;6.304;2023-04-25T04:55:42;10.57;;;2.05;;
59555;SDS011;45374;52.746;6.304;2023-04-25T04:58:09;8.43;;;1.90;;
59555;SDS011;45374;52.746;6.304;2023-04-25T05:00:35;6.75;;;1.77;;
59555;SDS011;45374;52.746;6.304;2023-04-25T05:03:02;6.15;;;2.00;;
59555;SDS011;45374;52.746;6.304;2023-04-25T05:05:28;10.27;;;2.30;;
59555;SDS011;45374;52.746;6.304;2023-04-25T05:07:53;13.38;;;2.58;;
59555;SDS011;45374;52.746;6.304;2023-04-25T05:10:19;9.80;;;2.60;;
59555;SDS011;45374;52.746;6.304;2023-04-25T05:12:46;12.48;;;2.40;;
59555;SDS011;45374;52.746;6.304;2023-04-25T05:15:11;10.80;;;2.15;;
59555;SDS011;45374;52.746;6.304;2023-04-25T05:17:39;10.93;;;2.70;;
59555;SDS011;45374;52.746;6.304;2023-04-25T05:20:05;11.93;;;2.20;;
59555;SDS011;45374;52.746;6.304;2023-04-25T05:22:32;10.93;;;2.17;;
59555;SDS011;45374;52.746;6.304;2023-04-25T05:24:58;9.40;;;2.22;;
59555;SDS011;45374;52.746;6.304;2023-04-25T05:27:23;8.48;;;1.95;;
59555;SDS011;45374;52.746;6.304;2023-04-25T05:29:49;7.78;;;2.50;;
59555;SDS011;45374;52.746;6.304;2023-04-25T05:32:15;12.10;;;2.33;;
59555;SDS011;45374;52.746;6.304;2023-04-25T05:34:41;7.05;;;2.17;;
59555;SDS011;45374;52.746;6.304;2023-04-25T05:37:07;11.80;;;2.42;;
59555;SDS011;45374;52.746;6.304;2023-04-25T05:39:32;10.55;;;2.28;;
59555;SDS011;45374;52.746;6.304;2023-04-25T05:41:58;11.25;;;2.33;;
59555;SDS011;45374;52.746;6.304;2023-04-25T05:44:23;9.32;;;2.00;;
59555;SDS011;45374;52.746;6.304;2023-04-25T05:46:50;5.07;;;1.35;;
59555;SDS011;45374;52.746;6.304;2023-04-25T05:49:15;7.50;;;1.42;;
59555;SDS011;45374;52.746;6.304;2023-04-25T05:51:41;8.13;;;1.70;;
59555;SDS011;45374;52.746;6.304;2023-04-25T05:54:06;10.90;;;1.50;;
59555;SDS011;45374;52.746;6.304;2023-04-25T05:56:32;9.45;;;1.60;;
59555;SDS011;45374;52.746;6.304;2023-04-25T05:58:57;14.98;;;1.80;;
59555;SDS011;45374;52.746;6.304;2023-04-25T06:01:23;4.97;;;1.30;;
59555;SDS011;45374;52.746;6.304;2023-04-25T06:03:49;8.20;;;2.15;;
59555;SDS011;45374;52.746;6.304;2023-04-25T06:06:16;7.57;;;1.45;;
59555;SDS011;45374;52.746;6.304;2023-04-25T06:08:41;6.43;;;1.70;;
59555;SDS011;45374;52.746;6.304;2023-04-25T06:11:07;13.70;;;1.60;;
59555;SDS011;45374;52.746;6.304;2023-04-25T06:13:33;7.70;;;1.23;;
59555;SDS011;45374;52.746;6.304;2023-04-25T06:15:58;4.70;;;1.80;;
59555;SDS011;45374;52.746;6.304;2023-04-25T06:18:24;7.75;;;1.83;;
59555;SDS011;45374;52.746;6.304;2023-04-25T06:20:49;6.32;;;1.60;;
59555;SDS011;45374;52.746;6.304;2023-04-25T06:23:15;7.03;;;1.60;;
59555;SDS011;45374;52.746;6.304;2023-04-25T06:25:40;4.60;;;1.15;;
59555;SDS011;45374;52.746;6.304;2023-04-25T06:28:06;8.90;;;1.02;;
59555;SDS011;45374;52.746;6.304;2023-04-25T06:30:31;7.63;;;2.08;;
59555;SDS011;45374;52.746;6.304;2023-04-25T06:32:57;4.82;;;1.50;;
59555;SDS011;45374;52.746;6.304;2023-04-25T06:35:22;6.28;;;1.50;;
59555;SDS011;45374;52.746;6.304;2023-04-25T06:37:48;9.82;;;1.70;;
59555;SDS011;45374;52.746;6.304;2023-04-25T06:40:13;2.53;;;0.90;;
59555;SDS011;45374;52.746;6.304;2023-04-25T06:42:39;9.70;;;1.98;;
59555;SDS011;45374;52.746;6.304;2023-04-25T06:45:05;10.85;;;1.70;;
59555;SDS011;45374;52.746;6.304;2023-04-25T06:47:31;6.20;;;1.35;;
59555;SDS011;45374;52.746;6.304;2023-04-25T06:49:57;6.88;;;1.38;;
59555;SDS011;45374;52.746;6.304;2023-04-25T06:52:22;13.15;;;1.98;;
59555;SDS011;45374;52.746;6.304;2023-04-25T06:54:48;7.72;;;2.03;;
59555;SDS011;45374;52.746;6.304;2023-04-25T06:57:13;8.60;;;1.45;;
59555;SDS011;45374;52.746;6.304;2023-04-25T06:59:39;8.48;;;1.48;;
59555;SDS011;45374;52.746;6.304;2023-04-25T07:02:05;13.18;;;1.92;;
59555;SDS011;45374;52.746;6.304;2023-04-25T07:04:31;6.45;;;1.20;;
59555;SDS011;45374;52.746;6.304;2023-04-25T07:06:56;4.15;;;1.33;;
59555;SDS011;45374;52.746;6.304;2023-04-25T07:09:22;5.20;;;1.15;;
59555;SDS011;45374;52.746;6.304;2023-04-25T07:11:48;5.35;;;0.98;;
59555;SDS011;45374;52.746;6.304;2023-04-25T07:14:13;12.52;;;2.13;;
59555;SDS011;45374;52.746;6.304;2023-04-25T07:16:39;7.15;;;1.75;;
59555;SDS011;45374;52.746;6.304;2023-04-25T07:19:04;3.58;;;1.13;;
59555;SDS011;45374;52.746;6.304;2023-04-25T07:21:30;8.98;;;1.35;;
59555;SDS011;45374;52.746;6.304;2023-04-25T07:23:56;6.05;;;1.40;;
59555;SDS011;45374;52.746;6.304;2023-04-25T07:26:22;5.22;;;1.45;;
59555;SDS011;45374;52.746;6.304;2023-04-25T07:28:47;11.23;;;2.10;;
59555;SDS011;45374;52.746;6.304;2023-04-25T07:31:15;5.82;;;1.52;;
59555;SDS011;45374;52.746;6.304;2023-04-25T07:33:44;6.68;;;2.10;;
59555;SDS011;45374;52.746;6.304;2023-04-25T07:36:10;9.55;;;1.70;;
59555;SDS011;45374;52.746;6.304;2023-04-25T07:38:37;3.65;;;1.25;;
59555;SDS011;45374;52.746;6.304;2023-04-25T07:41:03;11.43;;;1.90;;
59555;SDS011;45374;52.746;6.304;2023-04-25T07:43:28;8.23;;;1.90;;
59555;SDS011;45374;52.746;6.304;2023-04-25T07:45:54;8.98;;;1.65;;
59555;SDS011;45374;52.746;6.304;2023-04-25T07:48:19;7.38;;;1.50;;
59555;SDS011;45374;52.746;6.304;2023-04-25T07:50:45;6.85;;;1.42;;
59555;SDS011;45374;52.746;6.304;2023-04-25T07:53:10;4.63;;;1.23;;
59555;SDS011;45374;52.746;6.304;2023-04-25T07:55:36;4.20;;;0.95;;
59555;SDS011;45374;52.746;6.304;2023-04-25T07:58:05;7.72;;;1.42;;
59555;SDS011;45374;52.746;6.304;2023-04-25T08:00:33;5.75;;;1.05;;
59555;SDS011;45374;52.746;6.304;2023-04-25T08:02:59;6.65;;;1.63;;
59555;SDS011;45374;52.746;6.304;2023-04-25T08:05:25;4.32;;;0.80;;
59555;SDS011;45374;52.746;6.304;2023-04-25T08:07:50;4.28;;;1.00;;
59555;SDS011;45374;52.746;6.304;2023-04-25T08:10:16;1.73;;;0.80;;
59555;SDS011;45374;52.746;6.304;2023-04-25T08:12:42;3.30;;;1.00;;
59555;SDS011;45374;52.746;6.304;2023-04-25T08:15:07;1.67;;;0.63;;
59555;SDS011;45374;52.746;6.304;2023-04-25T08:17:34;4.60;;;0.80;;
59555;SDS011;45374;52.746;6.304;2023-04-25T08:19:59;2.92;;;0.68;;
59555;SDS011;45374;52.746;6.304;2023-04-25T08:22:25;5.40;;;0.60;;
59555;SDS011;45374;52.746;6.304;2023-04-25T08:24:50;3.70;;;0.80;;
59555;SDS011;45374;52.746;6.304;2023-04-25T08:27:17;2.85;;;0.90;;
59555;SDS011;45374;52.746;6.304;2023-04-25T08:29:43;5.30;;;1.20;;
59555;SDS011;45374;52.746;6.304;2023-04-25T08:32:08;2.95;;;0.85;;
59555;SDS011;45374;52.746;6.304;2023-04-25T08:34:34;2.97;;;0.60;;
59555;SDS011;45374;52.746;6.304;2023-04-25T08:37:01;2.58;;;1.10;;
59555;SDS011;45374;52.746;6.304;2023-04-25T08:39:29;4.13;;;0.82;;
59555;SDS011;45374;52.746;6.304;2023-04-25T08:41:54;7.55;;;1.10;;
59555;SDS011;45374;52.746;6.304;2023-04-25T08:44:21;3.63;;;0.90;;
59555;SDS011;45374;52.746;6.304;2023-04-25T08:46:48;4.30;;;0.93;;
59555;SDS011;45374;52.746;6.304;2023-04-25T08:49:17;4.60;;;1.00;;
59555;SDS011;45374;52.746;6.304;2023-04-25T08:51:44;6.57;;;1.30;;
59555;SDS011;45374;52.746;6.304;2023-04-25T08:54:15;6.23;;;1.20;;
59555;SDS011;45374;52.746;6.304;2023-04-25T08:56:42;7.50;;;1.65;;
59555;SDS011;45374;52.746;6.304;2023-04-25T08:59:11;3.08;;;0.88;;
59555;SDS011;45374;52.746;6.304;2023-04-25T09:01:36;4.97;;;1.33;;
59555;SDS011;45374;52.746;6.304;2023-04-25T09:04:02;7.00;;;1.80;;
59555;SDS011;45374;52.746;6.304;2023-04-25T09:06:28;8.43;;;2.08;;
59555;SDS011;45374;52.746;6.304;2023-04-25T09:09:00;3.25;;;1.20;;
59555;SDS011;45374;52.746;6.304;2023-04-25T09:11:29;4.25;;;1.10;;
59555;SDS011;45374;52.746;6.304;2023-04-25T09:14:14;6.38;;;1.23;;
59555;SDS011;45374;52.746;6.304;2023-04-25T09:21:51;3.53;;;1.13;;
59555;SDS011;45374;52.746;6.304;2023-04-25T09:24:29;4.37;;;0.80;;
59555;SDS011;45374;52.746;6.304;2023-04-25T09:26:56;3.10;;;1.08;;
59555;SDS011;45374;52.746;6.304;2023-04-25T09:29:28;2.92;;;1.02;;
59555;SDS011;45374;52.746;6.304;2023-04-25T09:34:54;2.78;;;1.15;;
59555;SDS011;45374;52.746;6.304;2023-04-25T09:37:25;5.18;;;1.10;;
59555;SDS011;45374;52.746;6.304;2023-04-25T09:39:53;6.82;;;1.38;;
59555;SDS011;45374;52.746;6.304;2023-04-25T09:42:23;4.05;;;1.27;;
59555;SDS011;45374;52.746;6.304;2023-04-25T09:44:51;5.47;;;0.98;;
59555;SDS011;45374;52.746;6.304;2023-04-25T09:47:18;13.15;;;2.15;;
59555;SDS011;45374;52.746;6.304;2023-04-25T09:49:46;2.45;;;0.90;;
59555;SDS011;45374;52.746;6.304;2023-04-25T09:52:16;9.77;;;1.88;;
59555;SDS011;45374;52.746;6.304;2023-04-25T09:54:42;6.13;;;1.27;;
59555;SDS011;45374;52.746;6.304;2023-04-25T09:57:13;5.03;;;1.15;;
59555;SDS011;45374;52.746;6.304;2023-04-25T09:59:48;4.60;;;1.00;;
59555;SDS011;45374;52.746;6.304;2023-04-25T10:02:17;10.07;;;1.15;;
59555;SDS011;45374;52.746;6.304;2023-04-25T10:04:47;4.07;;;1.48;;
59555;SDS011;45374;52.746;6.304;2023-04-25T10:07:16;4.65;;;1.10;;
59555;SDS011;45374;52.746;6.304;2023-04-25T10:09:42;8.93;;;1.60;;
59555;SDS011;45374;52.746;6.304;2023-04-25T10:12:11;5.93;;;1.10;;
59555;SDS011;45374;52.746;6.304;2023-04-25T10:14:37;6.97;;;1.67;;
59555;SDS011;45374;52.746;6.304;2023-04-25T10:17:05;6.05;;;1.60;;
59555;SDS011;45374;52.746;6.304;2023-04-25T10:19:31;5.85;;;1.30;;
59555;SDS011;45374;52.746;6.304;2023-04-25T10:24:32;6.50;;;1.38;;
59555;SDS011;45374;52.746;6.304;2023-04-25T10:26:58;7.40;;;1.70;;
59555;SDS011;45374;52.746;6.304;2023-04-25T10:29:24;4.25;;;1.23;;
59555;SDS011;45374;52.746;6.304;2023-04-25T10:31:50;5.43;;;1.80;;
59555;SDS011;45374;52.746;6.304;2023-04-25T10:34:17;6.38;;;1.30;;
59555;SDS011;45374;52.746;6.304;2023-04-25T10:36:43;3.47;;;0.85;;
59555;SDS011;45374;52.746;6.304;2023-04-25T10:39:21;3.13;;;1.02;;
59555;SDS011;45374;52.746;6.304;2023-04-25T10:41:51;3.65;;;1.00;;
59555;SDS011;45374;52.746;6.304;2023-04-25T10:44:20;3.85;;;0.80;;
59555;SDS011;45374;52.746;6.304;2023-04-25T10:46:45;2.38;;;1.08;;
59555;SDS011;45374;52.746;6.304;2023-04-25T10:49:14;3.55;;;1.10;;
59555;SDS011;45374;52.746;6.304;2023-04-25T10:52:13;3.70;;;0.90;;
59555;SDS011;45374;52.746;6.304;2023-04-25T10:54:46;4.55;;;1.42;;
59555;SDS011;45374;52.746;6.304;2023-04-25T11:00:12;8.00;;;1.20;;
59555;SDS011;45374;52.746;6.304;2023-04-25T11:02:47;4.90;;;1.00;;
59555;SDS011;45374;52.746;6.304;2023-04-25T11:05:22;4.47;;;1.40;;
59555;SDS011;45374;52.746;6.304;2023-04-25T11:07:54;4.35;;;1.42;;
59555;SDS011;45374;52.746;6.304;2023-04-25T11:10:25;4.70;;;0.95;;
59555;SDS011;45374;52.746;6.304;2023-04-25T11:12:58;4.75;;;1.10;;
59555;SDS011;45374;52.746;6.304;2023-04-25T11:15:25;8.35;;;1.15;;
59555;SDS011;45374;52.746;6.304;2023-04-25T11:17:51;3.30;;;1.15;;
59555;SDS011;45374;52.746;6.304;2023-04-25T11:20:20;5.28;;;1.20;;
59555;SDS011;45374;52.746;6.304;2023-04-25T11:22:47;4.22;;;1.45;;
59555;SDS011;45374;52.746;6.304;2023-04-25T11:25:13;6.70;;;1.50;;
59555;SDS011;45374;52.746;6.304;2023-04-25T11:27:53;3.15;;;0.95;;
59555;SDS011;45374;52.746;6.304;2023-04-25T11:30:19;5.03;;;1.23;;
59555;SDS011;45374;52.746;6.304;2023-04-25T11:32:46;5.65;;;1.17;;
59555;SDS011;45374;52.746;6.304;2023-04-25T11:35:13;5.05;;;1.08;;
59555;SDS011;45374;52.746;6.304;2023-04-25T11:37:40;6.72;;;1.45;;
59555;SDS011;45374;52.746;6.304;2023-04-25T11:40:07;4.63;;;1.10;;
59555;SDS011;45374;52.746;6.304;2023-04-25T11:42:36;3.15;;;0.95;;
59555;SDS011;45374;52.746;6.304;2023-04-25T11:45:03;4.63;;;1.10;;
59555;SDS011;45374;52.746;6.304;2023-04-25T11:47:30;3.25;;;0.82;;
59555;SDS011;45374;52.746;6.304;2023-04-25T11:50:00;3.80;;;0.90;;
59555;SDS011;45374;52.746;6.304;2023-04-25T11:52:40;3.00;;;0.98;;
59555;SDS011;45374;52.746;6.304;2023-04-25T11:55:07;4.65;;;0.88;;
59555;SDS011;45374;52.746;6.304;2023-04-25T11:57:34;3.08;;;1.00;;
59555;SDS011;45374;52.746;6.304;2023-04-25T12:00:07;4.80;;;1.10;;
59555;SDS011;45374;52.746;6.304;2023-04-25T12:02:44;4.05;;;0.95;;
59555;SDS011;45374;52.746;6.304;2023-04-25T12:05:23;5.88;;;1.10;;
59555;SDS011;45374;52.746;6.304;2023-04-25T12:07:50;5.68;;;1.13;;
59555;SDS011;45374;52.746;6.304;2023-04-25T12:10:16;3.78;;;1.10;;
59555;SDS011;45374;52.746;6.304;2023-04-25T12:12:44;5.18;;;1.52;;
59555;SDS011;45374;52.746;6.304;2023-04-25T12:17:39;6.40;;;1.40;;
59555;SDS011;45374;52.746;6.304;2023-04-25T12:20:07;5.97;;;1.05;;
59555;SDS011;45374;52.746;6.304;2023-04-25T12:22:39;6.50;;;1.48;;
59555;SDS011;45374;52.746;6.304;2023-04-25T12:25:13;2.10;;;0.90;;
59555;SDS011;45374;52.746;6.304;2023-04-25T12:30:54;5.05;;;1.05;;
59555;SDS011;45374;52.746;6.304;2023-04-25T12:33:28;3.85;;;1.40;;
59555;SDS011;45374;52.746;6.304;2023-04-25T12:35:56;3.22;;;1.23;;
59555;SDS011;45374;52.746;6.304;2023-04-25T12:38:26;3.65;;;1.50;;
59555;SDS011;45374;52.746;6.304;2023-04-25T12:40:55;4.18;;;1.02;;
59555;SDS011;45374;52.746;6.304;2023-04-25T12:43:21;7.15;;;1.40;;
59555;SDS011;45374;52.746;6.304;2023-04-25T12:45:50;4.53;;;1.40;;
59555;SDS011;45374;52.746;6.304;2023-04-25T12:48:18;3.78;;;1.15;;
59555;SDS011;45374;52.746;6.304;2023-04-25T12:50:43;8.93;;;1.35;;
59555;SDS011;45374;52.746;6.304;2023-04-25T12:53:09;7.10;;;1.70;;
59555;SDS011;45374;52.746;6.304;2023-04-25T12:55:36;6.43;;;1.23;;
59555;SDS011;45374;52.746;6.304;2023-04-25T12:58:03;8.77;;;1.27;;
59555;SDS011;45374;52.746;6.304;2023-04-25T13:00:29;8.32;;;1.38;;
59555;SDS011;45374;52.746;6.304;2023-04-25T13:02:55;5.07;;;1.27;;
59555;SDS011;45374;52.746;6.304;2023-04-25T13:05:21;5.22;;;0.80;;
59555;SDS011;45374;52.746;6.304;2023-04-25T13:07:47;3.30;;;1.20;;
59555;SDS011;45374;52.746;6.304;2023-04-25T13:10:12;5.03;;;1.40;;
59555;SDS011;45374;52.746;6.304;2023-04-25T13:12:38;3.25;;;1.15;;
59555;SDS011;45374;52.746;6.304;2023-04-25T13:15:03;6.38;;;0.98;;
59555;SDS011;45374;52.746;6.304;2023-04-25T13:17:30;12.70;;;1.92;;
59555;SDS011;45374;52.746;6.304;2023-04-25T13:19:55;4.78;;;1.35;;
59555;SDS011;45374;52.746;6.304;2023-04-25T13:22:21;6.25;;;1.40;;
59555;SDS011;45374;52.746;6.304;2023-04-25T13:24:47;7.63;;;1.45;;
59555;SDS011;45374;52.746;6.304;2023-04-25T13:27:14;6.40;;;1.27;;
59555;SDS011;45374;52.746;6.304;2023-04-25T13:29:39;3.65;;;1.25;;
59555;SDS011;45374;52.746;6.304;2023-04-25T13:32:05;8.05;;;1.70;;
59555;SDS011;45374;52.746;6.304;2023-04-25T13:34:31;6.57;;;1.45;;
59555;SDS011;45374;52.746;6.304;2023-04-25T13:36:57;7.18;;;1.85;;
59555;SDS011;45374;52.746;6.304;2023-04-25T13:39:22;5.72;;;1.45;;
59555;SDS011;45374;52.746;6.304;2023-04-25T13:41:48;3.83;;;1.35;;
59555;SDS011;45374;52.746;6.304;2023-04-25T13:44:13;7.65;;;1.60;;
59555;SDS011;45374;52.746;6.304;2023-04-25T13:46:39;4.95;;;1.00;;
59555;SDS011;45374;52.746;6.304;2023-04-25T13:49:05;4.53;;;1.20;;
59555;SDS011;45374;52.746;6.304;2023-04-25T13:51:30;3.10;;;1.08;;
59555;SDS011;45374;52.746;6.304;2023-04-25T13:53:56;3.63;;;1.20;;
59555;SDS011;45374;52.746;6.304;2023-04-25T13:56:22;4.05;;;0.95;;
59555;SDS011;45374;52.746;6.304;2023-04-25T13:58:52;2.60;;;1.05;;
59555;SDS011;45374;52.746;6.304;2023-04-25T14:01:17;4.35;;;1.13;;
59555;SDS011;45374;52.746;6.304;2023-04-25T14:03:44;4.20;;;1.10;;
59555;SDS011;45374;52.746;6.304;2023-04-25T14:06:11;3.45;;;1.30;;
59555;SDS011;45374;52.746;6.304;2023-04-25T14:08:37;2.05;;;1.17;;
59555;SDS011;45374;52.746;6.304;2023-04-25T14:11:03;4.88;;;0.98;;
59555;SDS011;45374;52.746;6.304;2023-04-25T14:13:29;8.55;;;1.95;;
59555;SDS011;45374;52.746;6.304;2023-04-25T14:15:54;5.63;;;1.65;;
59555;SDS011;45374;52.746;6.304;2023-04-25T14:18:20;3.25;;;0.98;;
59555;SDS011;45374;52.746;6.304;2023-04-25T14:20:46;2.83;;;0.88;;
59555;SDS011;45374;52.746;6.304;2023-04-25T14:23:11;3.47;;;1.02;;
59555;SDS011;45374;52.746;6.304;2023-04-25T14:25:37;2.40;;;0.73;;
59555;SDS011;45374;52.746;6.304;2023-04-25T14:28:02;3.25;;;0.68;;
59555;SDS011;45374;52.746;6.304;2023-04-25T14:30:28;3.92;;;0.85;;
59555;SDS011;45374;52.746;6.304;2023-04-25T14:32:54;4.53;;;0.80;;
59555;SDS011;45374;52.746;6.304;2023-04-25T14:35:19;5.38;;;0.95;;
59555;SDS011;45374;52.746;6.304;2023-04-25T14:37:45;2.88;;;1.20;;
59555;SDS011;45374;52.746;6.304;2023-04-25T14:40:11;7.72;;;1.55;;
59555;SDS011;45374;52.746;6.304;2023-04-25T14:42:38;3.83;;;0.98;;
59555;SDS011;45374;52.746;6.304;2023-04-25T14:45:05;5.03;;;1.58;;
59555;SDS011;45374;52.746;6.304;2023-04-25T14:47:32;5.07;;;1.00;;
59555;SDS011;45374;52.746;6.304;2023-04-25T14:49:59;4.47;;;0.90;;
59555;SDS011;45374;52.746;6.304;2023-04-25T14:52:24;8.25;;;1.63;;
59555;SDS011;45374;52.746;6.304;2023-04-25T14:54:50;5.38;;;2.20;;
59555;SDS011;45374;52.746;6.304;2023-04-25T14:57:16;7.32;;;1.88;;
59555;SDS011;45374;52.746;6.304;2023-04-25T14:59:42;8.65;;;1.52;;
59555;SDS011;45374;52.746;6.304;2023-04-25T15:02:07;8.30;;;2.00;;
59555;SDS011;45374;52.746;6.304;2023-04-25T15:04:33;6.03;;;1.50;;